sensor_id;sensor_type;location;lat;lon;timestamp;temperature;humidity
81210;DHT22;70685;52.496;13.420;2023-09-07T00:00:32;20.00;63.00
81210;DHT22;70685;52.496;13.420;2023-09-07T00:02:59;19.90;63.30
81210;DHT22;70685;52.496;13.420;2023-09-07T00:05:31;20.00;63.20
81210;DHT22;70685;52.496;13.420;2023-09-07T00:07:59;20.00;63.00
81210;DHT22;70685;52.496;13.420;2023-09-07T00:10:25;20.00;63.00
81210;DHT22;70685;52.496;13.420;2023-09-07T00:12:51;19.90;63.00
81210;DHT22;70685;52.496;13.420;2023-09-07T00:15:17;19.90;63.10
81210;DHT22;70685;52.496;13.420;2023-09-07T00:17:45;19.90;63.60
81210;DHT22;70685;52.496;13.420;2023-09-07T00:20:11;19.90;63.20
81210;DHT22;70685;52.496;13.420;2023-09-07T00:22:40;19.90;63.30
81210;DHT22;70685;52.496;13.420;2023-09-07T00:25:08;19.80;63.50
81210;DHT22;70685;52.496;13.420;2023-09-07T00:27:34;19.80;63.50
81210;DHT22;70685;52.496;13.420;2023-09-07T00:30:00;19.90;63.60
81210;DHT22;70685;52.496;13.420;2023-09-07T00:32:29;19.80;64.30
81210;DHT22;70685;52.496;13.420;2023-09-07T00:34:55;19.80;63.60
81210;DHT22;70685;52.496;13.420;2023-09-07T00:37:23;19.80;63.60
81210;DHT22;70685;52.496;13.420;2023-09-07T00:39:48;19.80;63.70
81210;DHT22;70685;52.496;13.420;2023-09-07T00:42:14;19.80;63.80
81210;DHT22;70685;52.496;13.420;2023-09-07T00:44:40;19.70;63.90
81210;DHT22;70685;52.496;13.420;2023-09-07T00:47:08;19.70;64.00
81210;DHT22;70685;52.496;13.420;2023-09-07T00:49:33;19.60;64.00
81210;DHT22;70685;52.496;13.420;2023-09-07T00:51:59;19.60;64.00
81210;DHT22;70685;52.496;13.420;2023-09-07T00:54:25;19.70;64.00
81210;DHT22;70685;52.496;13.420;2023-09-07T00:56:50;19.60;64.00
81210;DHT22;70685;52.496;13.420;2023-09-07T00:59:16;19.60;64.20
81210;DHT22;70685;52.496;13.420;2023-09-07T01:01:42;19.60;64.40
81210;DHT22;70685;52.496;13.420;2023-09-07T01:04:16;19.60;64.40
81210;DHT22;70685;52.496;13.420;2023-09-07T01:06:55;19.50;64.50
81210;DHT22;70685;52.496;13.420;2023-09-07T01:09:24;19.50;64.50
81210;DHT22;70685;52.496;13.420;2023-09-07T01:11:52;19.50;64.50
81210;DHT22;70685;52.496;13.420;2023-09-07T01:14:19;19.50;64.70
81210;DHT22;70685;52.496;13.420;2023-09-07T01:16:50;19.50;64.60
81210;DHT22;70685;52.496;13.420;2023-09-07T01:19:19;19.50;64.60
81210;DHT22;70685;52.496;13.420;2023-09-07T01:21:45;19.40;64.70
81210;DHT22;70685;52.496;13.420;2023-09-07T01:24:14;19.40;64.80
81210;DHT22;70685;52.496;13.420;2023-09-07T01:26:43;19.30;64.90
81210;DHT22;70685;52.496;13.420;2023-09-07T01:29:13;19.30;65.00
81210;DHT22;70685;52.496;13.420;2023-09-07T01:31:39;19.30;65.10
81210;DHT22;70685;52.496;13.420;2023-09-07T01:34:08;19.30;65.20
81210;DHT22;70685;52.496;13.420;2023-09-07T01:36:37;19.30;65.10
81210;DHT22;70685;52.496;13.420;2023-09-07T01:39:04;19.30;65.00
81210;DHT22;70685;52.496;13.420;2023-09-07T01:41:31;19.30;64.80
81210;DHT22;70685;52.496;13.420;2023-09-07T01:43:57;19.40;64.70
81210;DHT22;70685;52.496;13.420;2023-09-07T01:46:22;19.30;64.60
81210;DHT22;70685;52.496;13.420;2023-09-07T01:48:51;19.30;64.80
81210;DHT22;70685;52.496;13.420;2023-09-07T01:51:16;19.30;64.90
81210;DHT22;70685;52.496;13.420;2023-09-07T01:53:47;19.30;64.80
81210;DHT22;70685;52.496;13.420;2023-09-07T01:56:15;19.30;65.20
81210;DHT22;70685;52.496;13.420;2023-09-07T01:58:43;19.20;64.90
81210;DHT22;70685;52.496;13.420;2023-09-07T02:01:30;19.30;64.80
81210;DHT22;70685;52.496;13.420;2023-09-07T02:03:56;19.30;64.40
81210;DHT22;70685;52.496;13.420;2023-09-07T02:06:22;19.30;64.40
81210;DHT22;70685;52.496;13.420;2023-09-07T02:08:52;19.30;64.50
81210;DHT22;70685;52.496;13.420;2023-09-07T02:11:20;19.30;64.60
81210;DHT22;70685;52.496;13.420;2023-09-07T02:13:52;19.30;64.40
81210;DHT22;70685;52.496;13.420;2023-09-07T02:16:18;19.30;64.50
81210;DHT22;70685;52.496;13.420;2023-09-07T02:18:49;19.20;64.70
81210;DHT22;70685;52.496;13.420;2023-09-07T02:21:15;19.20;65.40
81210;DHT22;70685;52.496;13.420;2023-09-07T02:23:41;19.20;64.70
81210;DHT22;70685;52.496;13.420;2023-09-07T02:26:09;19.10;64.60
81210;DHT22;70685;52.496;13.420;2023-09-07T02:28:34;19.10;64.80
81210;DHT22;70685;52.496;13.420;2023-09-07T02:31:04;19.10;64.70
81210;DHT22;70685;52.496;13.420;2023-09-07T02:33:30;19.10;64.70
81210;DHT22;70685;52.496;13.420;2023-09-07T02:35:57;19.10;64.80
81210;DHT22;70685;52.496;13.420;2023-09-07T02:38:23;19.10;64.70
81210;DHT22;70685;52.496;13.420;2023-09-07T02:40:49;19.10;64.20
81210;DHT22;70685;52.496;13.420;2023-09-07T02:43:14;19.20;64.20
81210;DHT22;70685;52.496;13.420;2023-09-07T02:45:45;19.10;64.20
81210;DHT22;70685;52.496;13.420;2023-09-07T02:48:10;19.20;64.20
81210;DHT22;70685;52.496;13.420;2023-09-07T02:50:36;19.20;64.00
81210;DHT22;70685;52.496;13.420;2023-09-07T02:53:05;19.20;64.00
81210;DHT22;70685;52.496;13.420;2023-09-07T02:55:35;19.10;64.00
81210;DHT22;70685;52.496;13.420;2023-09-07T02:58:03;19.10;64.20
81210;DHT22;70685;52.496;13.420;2023-09-07T03:00:31;19.00;64.30
81210;DHT22;70685;52.496;13.420;2023-09-07T03:02:56;19.00;64.70
81210;DHT22;70685;52.496;13.420;2023-09-07T03:05:27;19.00;64.30
81210;DHT22;70685;52.496;13.420;2023-09-07T03:07:56;19.00;64.20
81210;DHT22;70685;52.496;13.420;2023-09-07T03:10:21;19.00;64.50
81210;DHT22;70685;52.496;13.420;2023-09-07T03:12:47;19.00;64.40
81210;DHT22;70685;52.496;13.420;2023-09-07T03:15:12;19.00;64.20
81210;DHT22;70685;52.496;13.420;2023-09-07T03:17:42;19.00;64.30
81210;DHT22;70685;52.496;13.420;2023-09-07T03:20:08;19.00;64.40
81210;DHT22;70685;52.496;13.420;2023-09-07T03:22:42;18.90;64.60
81210;DHT22;70685;52.496;13.420;2023-09-07T03:25:08;18.80;64.90
81210;DHT22;70685;52.496;13.420;2023-09-07T03:27:35;18.70;65.10
81210;DHT22;70685;52.496;13.420;2023-09-07T03:30:02;18.70;65.40
81210;DHT22;70685;52.496;13.420;2023-09-07T03:32:28;18.60;65.50
81210;DHT22;70685;52.496;13.420;2023-09-07T03:35:02;18.60;65.60
81210;DHT22;70685;52.496;13.420;2023-09-07T03:37:32;18.60;65.60
81210;DHT22;70685;52.496;13.420;2023-09-07T03:40:00;18.60;65.70
81210;DHT22;70685;52.496;13.420;2023-09-07T03:42:33;18.50;65.70
81210;DHT22;70685;52.496;13.420;2023-09-07T03:45:03;18.40;66.00
81210;DHT22;70685;52.496;13.420;2023-09-07T03:47:34;18.50;66.00
81210;DHT22;70685;52.496;13.420;2023-09-07T03:50:05;18.50;66.20
81210;DHT22;70685;52.496;13.420;2023-09-07T03:52:31;18.50;66.30
81210;DHT22;70685;52.496;13.420;2023-09-07T03:54:57;18.40;66.50
81210;DHT22;70685;52.496;13.420;2023-09-07T03:57:24;18.40;66.60
81210;DHT22;70685;52.496;13.420;2023-09-07T03:59:53;18.30;66.60
81210;DHT22;70685;52.496;13.420;2023-09-07T04:02:21;18.30;66.70
81210;DHT22;70685;52.496;13.420;2023-09-07T04:04:54;18.30;66.90
81210;DHT22;70685;52.496;13.420;2023-09-07T04:07:23;18.20;67.10
81210;DHT22;70685;52.496;13.420;2023-09-07T04:09:50;18.20;67.00
81210;DHT22;70685;52.496;13.420;2023-09-07T04:12:20;18.20;66.90
81210;DHT22;70685;52.496;13.420;2023-09-07T04:14:46;18.30;66.80
81210;DHT22;70685;52.496;13.420;2023-09-07T04:17:12;18.20;66.80
81210;DHT22;70685;52.496;13.420;2023-09-07T04:19:40;18.20;66.90
81210;DHT22;70685;52.496;13.420;2023-09-07T04:22:05;18.20;67.10
81210;DHT22;70685;52.496;13.420;2023-09-07T04:24:33;18.10;67.30
81210;DHT22;70685;52.496;13.420;2023-09-07T04:27:02;18.10;67.30
81210;DHT22;70685;52.496;13.420;2023-09-07T04:29:28;18.10;67.20
81210;DHT22;70685;52.496;13.420;2023-09-07T04:31:54;18.10;67.10
81210;DHT22;70685;52.496;13.420;2023-09-07T04:34:23;18.20;67.10
81210;DHT22;70685;52.496;13.420;2023-09-07T04:36:51;18.20;67.10
81210;DHT22;70685;52.496;13.420;2023-09-07T04:39:17;18.40;66.60
81210;DHT22;70685;52.496;13.420;2023-09-07T04:41:43;18.40;66.50
81210;DHT22;70685;52.496;13.420;2023-09-07T04:44:09;18.40;66.40
81210;DHT22;70685;52.496;13.420;2023-09-07T04:46:39;18.40;66.50
81210;DHT22;70685;52.496;13.420;2023-09-07T04:49:06;18.40;66.30
81210;DHT22;70685;52.496;13.420;2023-09-07T04:51:37;18.50;66.30
81210;DHT22;70685;52.496;13.420;2023-09-07T04:54:02;18.50;66.10
81210;DHT22;70685;52.496;13.420;2023-09-07T04:56:28;18.60;66.10
81210;DHT22;70685;52.496;13.420;2023-09-07T04:58:57;18.70;65.60
81210;DHT22;70685;52.496;13.420;2023-09-07T05:01:25;18.70;65.30
81210;DHT22;70685;52.496;13.420;2023-09-07T05:03:50;18.70;65.70
81210;DHT22;70685;52.496;13.420;2023-09-07T05:06:16;18.70;65.40
81210;DHT22;70685;52.496;13.420;2023-09-07T05:08:42;18.80;65.10
81210;DHT22;70685;52.496;13.420;2023-09-07T05:11:10;18.80;65.00
81210;DHT22;70685;52.496;13.420;2023-09-07T05:13:35;18.90;64.80
81210;DHT22;70685;52.496;13.420;2023-09-07T05:16:01;18.90;64.40
81210;DHT22;70685;52.496;13.420;2023-09-07T05:18:30;18.90;64.40
81210;DHT22;70685;52.496;13.420;2023-09-07T05:20:55;19.00;64.70
81210;DHT22;70685;52.496;13.420;2023-09-07T05:23:23;19.10;64.50
81210;DHT22;70685;52.496;13.420;2023-09-07T05:25:52;19.00;64.40
81210;DHT22;70685;52.496;13.420;2023-09-07T05:28:20;19.10;64.30
81210;DHT22;70685;52.496;13.420;2023-09-07T05:30:46;19.10;64.10
81210;DHT22;70685;52.496;13.420;2023-09-07T05:33:14;19.20;63.80
81210;DHT22;70685;52.496;13.420;2023-09-07T05:35:43;19.20;63.70
81210;DHT22;70685;52.496;13.420;2023-09-07T05:38:13;19.30;63.80
81210;DHT22;70685;52.496;13.420;2023-09-07T05:40:41;19.30;63.70
81210;DHT22;70685;52.496;13.420;2023-09-07T05:43:07;19.40;63.50
81210;DHT22;70685;52.496;13.420;2023-09-07T05:45:42;19.40;63.20
81210;DHT22;70685;52.496;13.420;2023-09-07T05:48:08;19.60;63.00
81210;DHT22;70685;52.496;13.420;2023-09-07T05:50:35;19.60;62.70
81210;DHT22;70685;52.496;13.420;2023-09-07T05:53:04;19.70;62.60
81210;DHT22;70685;52.496;13.420;2023-09-07T05:55:30;19.80;61.70
81210;DHT22;70685;52.496;13.420;2023-09-07T05:57:57;19.90;61.50
81210;DHT22;70685;52.496;13.420;2023-09-07T06:00:23;20.00;61.20
81210;DHT22;70685;52.496;13.420;2023-09-07T06:02:51;20.10;61.30
81210;DHT22;70685;52.496;13.420;2023-09-07T06:05:19;20.10;60.70
81210;DHT22;70685;52.496;13.420;2023-09-07T06:07:45;20.20;61.00
81210;DHT22;70685;52.496;13.420;2023-09-07T06:10:13;20.30;60.30
81210;DHT22;70685;52.496;13.420;2023-09-07T06:12:38;20.40;60.30
81210;DHT22;70685;52.496;13.420;2023-09-07T06:15:04;20.50;60.20
81210;DHT22;70685;52.496;13.420;2023-09-07T06:17:32;20.70;59.60
81210;DHT22;70685;52.496;13.420;2023-09-07T06:19:58;20.80;58.80
81210;DHT22;70685;52.496;13.420;2023-09-07T06:22:24;21.00;58.80
81210;DHT22;70685;52.496;13.420;2023-09-07T06:24:49;21.80;56.70
81210;DHT22;70685;52.496;13.420;2023-09-07T06:27:17;23.60;52.30
81210;DHT22;70685;52.496;13.420;2023-09-07T06:29:43;25.50;46.90
81210;DHT22;70685;52.496;13.420;2023-09-07T06:32:09;27.20;43.30
81210;DHT22;70685;52.496;13.420;2023-09-07T06:34:34;28.80;40.00
81210;DHT22;70685;52.496;13.420;2023-09-07T06:37:00;30.20;37.50
81210;DHT22;70685;52.496;13.420;2023-09-07T06:39:28;31.20;35.10
81210;DHT22;70685;52.496;13.420;2023-09-07T06:41:54;32.00;33.20
81210;DHT22;70685;52.496;13.420;2023-09-07T06:44:20;32.70;32.10
81210;DHT22;70685;52.496;13.420;2023-09-07T06:46:45;32.80;32.10
81210;DHT22;70685;52.496;13.420;2023-09-07T06:49:14;32.80;30.90
81210;DHT22;70685;52.496;13.420;2023-09-07T06:51:40;32.00;31.70
81210;DHT22;70685;52.496;13.420;2023-09-07T06:54:06;31.00;33.00
81210;DHT22;70685;52.496;13.420;2023-09-07T06:56:31;30.70;33.20
81210;DHT22;70685;52.496;13.420;2023-09-07T06:59:01;30.90;33.50
81210;DHT22;70685;52.496;13.420;2023-09-07T07:01:27;31.90;32.60
81210;DHT22;70685;52.496;13.420;2023-09-07T07:03:53;32.80;30.90
81210;DHT22;70685;52.496;13.420;2023-09-07T07:06:19;33.50;29.70
81210;DHT22;70685;52.496;13.420;2023-09-07T07:08:48;33.80;29.10
81210;DHT22;70685;52.496;13.420;2023-09-07T07:11:13;34.00;28.80
81210;DHT22;70685;52.496;13.420;2023-09-07T07:13:39;34.00;29.00
81210;DHT22;70685;52.496;13.420;2023-09-07T07:16:04;34.10;29.40
81210;DHT22;70685;52.496;13.420;2023-09-07T07:18:33;34.30;28.90
81210;DHT22;70685;52.496;13.420;2023-09-07T07:20:58;34.60;28.20
81210;DHT22;70685;52.496;13.420;2023-09-07T07:23:26;35.10;28.20
81210;DHT22;70685;52.496;13.420;2023-09-07T07:25:52;35.60;27.80
81210;DHT22;70685;52.496;13.420;2023-09-07T07:28:18;35.90;27.30
81210;DHT22;70685;52.496;13.420;2023-09-07T07:30:43;36.00;27.00
81210;DHT22;70685;52.496;13.420;2023-09-07T07:33:10;36.50;27.40
81210;DHT22;70685;52.496;13.420;2023-09-07T07:35:39;36.90;26.50
81210;DHT22;70685;52.496;13.420;2023-09-07T07:38:07;37.10;26.20
81210;DHT22;70685;52.496;13.420;2023-09-07T07:40:35;37.00;25.70
81210;DHT22;70685;52.496;13.420;2023-09-07T07:43:01;37.40;26.40
81210;DHT22;70685;52.496;13.420;2023-09-07T07:45:28;37.70;26.20
81210;DHT22;70685;52.496;13.420;2023-09-07T07:47:58;37.90;25.80
81210;DHT22;70685;52.496;13.420;2023-09-07T07:50:24;38.20;25.40
81210;DHT22;70685;52.496;13.420;2023-09-07T07:52:49;38.90;25.30
81210;DHT22;70685;52.496;13.420;2023-09-07T07:55:15;39.90;24.30
81210;DHT22;70685;52.496;13.420;2023-09-07T07:57:41;40.40;23.90
81210;DHT22;70685;52.496;13.420;2023-09-07T08:00:09;40.30;23.30
81210;DHT22;70685;52.496;13.420;2023-09-07T08:02:35;40.30;23.70
81210;DHT22;70685;52.496;13.420;2023-09-07T08:05:04;40.40;23.60
81210;DHT22;70685;52.496;13.420;2023-09-07T08:07:29;40.50;23.60
81210;DHT22;70685;52.496;13.420;2023-09-07T08:09:55;40.60;23.20
81210;DHT22;70685;52.496;13.420;2023-09-07T08:12:21;41.10;23.70
81210;DHT22;70685;52.496;13.420;2023-09-07T08:14:49;41.10;23.00
81210;DHT22;70685;52.496;13.420;2023-09-07T08:17:15;41.20;23.00
81210;DHT22;70685;52.496;13.420;2023-09-07T08:19:40;40.90;23.60
81210;DHT22;70685;52.496;13.420;2023-09-07T08:22:06;41.00;23.30
81210;DHT22;70685;52.496;13.420;2023-09-07T08:24:32;41.00;23.10
81210;DHT22;70685;52.496;13.420;2023-09-07T08:26:58;40.80;22.40
81210;DHT22;70685;52.496;13.420;2023-09-07T08:29:25;40.80;22.70
81210;DHT22;70685;52.496;13.420;2023-09-07T08:31:55;41.00;22.40
81210;DHT22;70685;52.496;13.420;2023-09-07T08:34:21;41.00;22.70
81210;DHT22;70685;52.496;13.420;2023-09-07T08:36:49;41.10;22.70
81210;DHT22;70685;52.496;13.420;2023-09-07T08:39:20;41.30;22.50
81210;DHT22;70685;52.496;13.420;2023-09-07T08:41:48;41.20;22.30
81210;DHT22;70685;52.496;13.420;2023-09-07T08:44:16;40.50;22.00
81210;DHT22;70685;52.496;13.420;2023-09-07T08:46:43;40.20;23.40
81210;DHT22;70685;52.496;13.420;2023-09-07T08:49:14;40.10;22.60
81210;DHT22;70685;52.496;13.420;2023-09-07T08:51:45;40.30;23.20
81210;DHT22;70685;52.496;13.420;2023-09-07T08:54:13;40.30;22.70
81210;DHT22;70685;52.496;13.420;2023-09-07T08:56:38;40.30;23.00
81210;DHT22;70685;52.496;13.420;2023-09-07T08:59:05;40.20;22.70
81210;DHT22;70685;52.496;13.420;2023-09-07T09:01:30;39.80;22.70
81210;DHT22;70685;52.496;13.420;2023-09-07T09:03:59;39.60;23.10
81210;DHT22;70685;52.496;13.420;2023-09-07T09:06:25;39.20;22.90
81210;DHT22;70685;52.496;13.420;2023-09-07T09:08:54;39.10;23.30
81210;DHT22;70685;52.496;13.420;2023-09-07T09:11:26;38.70;23.20
81210;DHT22;70685;52.496;13.420;2023-09-07T09:13:55;38.60;23.40
81210;DHT22;70685;52.496;13.420;2023-09-07T09:16:28;38.70;22.70
81210;DHT22;70685;52.496;13.420;2023-09-07T09:18:55;38.80;22.90
81210;DHT22;70685;52.496;13.420;2023-09-07T09:21:26;38.60;23.50
81210;DHT22;70685;52.496;13.420;2023-09-07T09:23:57;38.50;23.60
81210;DHT22;70685;52.496;13.420;2023-09-07T09:26:23;38.40;23.00
81210;DHT22;70685;52.496;13.420;2023-09-07T09:28:51;37.80;23.70
81210;DHT22;70685;52.496;13.420;2023-09-07T09:31:18;37.60;24.00
81210;DHT22;70685;52.496;13.420;2023-09-07T09:33:52;38.30;23.20
81210;DHT22;70685;52.496;13.420;2023-09-07T09:36:20;38.80;23.40
81210;DHT22;70685;52.496;13.420;2023-09-07T09:38:52;39.20;23.20
81210;DHT22;70685;52.496;13.420;2023-09-07T09:41:20;39.30;22.70
81210;DHT22;70685;52.496;13.420;2023-09-07T09:43:47;38.70;23.00
81210;DHT22;70685;52.496;13.420;2023-09-07T09:46:17;38.80;22.80
81210;DHT22;70685;52.496;13.420;2023-09-07T09:48:48;38.80;22.90
81210;DHT22;70685;52.496;13.420;2023-09-07T09:51:20;38.60;23.00
81210;DHT22;70685;52.496;13.420;2023-09-07T09:53:48;38.40;22.90
81210;DHT22;70685;52.496;13.420;2023-09-07T09:56:17;38.20;23.10
81210;DHT22;70685;52.496;13.420;2023-09-07T09:58:43;37.90;23.60
81210;DHT22;70685;52.496;13.420;2023-09-07T10:01:12;37.90;23.70
81210;DHT22;70685;52.496;13.420;2023-09-07T10:03:47;37.70;23.80
81210;DHT22;70685;52.496;13.420;2023-09-07T10:06:27;38.10;23.30
81210;DHT22;70685;52.496;13.420;2023-09-07T10:09:04;38.40;23.00
81210;DHT22;70685;52.496;13.420;2023-09-07T10:11:38;38.30;23.40
81210;DHT22;70685;52.496;13.420;2023-09-07T10:14:07;37.70;24.10
81210;DHT22;70685;52.496;13.420;2023-09-07T10:19:18;37.40;23.80
81210;DHT22;70685;52.496;13.420;2023-09-07T10:21:52;38.00;23.90
81210;DHT22;70685;52.496;13.420;2023-09-07T10:24:36;38.30;23.60
81210;DHT22;70685;52.496;13.420;2023-09-07T10:27:08;38.60;22.70
81210;DHT22;70685;52.496;13.420;2023-09-07T10:32:17;37.80;23.30
81210;DHT22;70685;52.496;13.420;2023-09-07T10:34:43;38.00;23.30
81210;DHT22;70685;52.496;13.420;2023-09-07T10:37:17;38.00;23.40
81210;DHT22;70685;52.496;13.420;2023-09-07T10:39:45;38.20;23.20
81210;DHT22;70685;52.496;13.420;2023-09-07T10:42:24;38.00;23.20
81210;DHT22;70685;52.496;13.420;2023-09-07T10:44:50;38.50;23.70
81210;DHT22;70685;52.496;13.420;2023-09-07T10:47:16;38.60;22.90
81210;DHT22;70685;52.496;13.420;2023-09-07T10:49:42;38.70;22.40
81210;DHT22;70685;52.496;13.420;2023-09-07T10:52:08;38.80;22.60
81210;DHT22;70685;52.496;13.420;2023-09-07T10:54:36;38.80;22.80
81210;DHT22;70685;52.496;13.420;2023-09-07T10:57:09;38.30;22.70
81210;DHT22;70685;52.496;13.420;2023-09-07T10:59:34;38.20;22.80
81210;DHT22;70685;52.496;13.420;2023-09-07T11:02:06;38.10;22.70
81210;DHT22;70685;52.496;13.420;2023-09-07T11:04:33;38.20;23.00
81210;DHT22;70685;52.496;13.420;2023-09-07T11:06:58;38.30;23.20
81210;DHT22;70685;52.496;13.420;2023-09-07T11:09:24;38.40;23.00
81210;DHT22;70685;52.496;13.420;2023-09-07T11:11:55;38.40;22.20
81210;DHT22;70685;52.496;13.420;2023-09-07T11:14:29;38.20;22.60
81210;DHT22;70685;52.496;13.420;2023-09-07T11:16:56;38.00;23.10
81210;DHT22;70685;52.496;13.420;2023-09-07T11:19:22;37.50;22.70
81210;DHT22;70685;52.496;13.420;2023-09-07T11:21:48;37.10;23.00
81210;DHT22;70685;52.496;13.420;2023-09-07T11:24:16;36.80;23.00
81210;DHT22;70685;52.496;13.420;2023-09-07T11:26:44;36.80;23.60
81210;DHT22;70685;52.496;13.420;2023-09-07T11:29:14;37.00;23.10
81210;DHT22;70685;52.496;13.420;2023-09-07T11:31:40;36.80;22.90
81210;DHT22;70685;52.496;13.420;2023-09-07T11:34:14;36.50;23.80
81210;DHT22;70685;52.496;13.420;2023-09-07T11:36:40;36.80;23.10
81210;DHT22;70685;52.496;13.420;2023-09-07T11:39:06;36.80;23.50
81210;DHT22;70685;52.496;13.420;2023-09-07T11:41:41;37.10;22.80
81210;DHT22;70685;52.496;13.420;2023-09-07T11:44:08;37.50;22.10
81210;DHT22;70685;52.496;13.420;2023-09-07T11:46:37;37.90;22.70
81210;DHT22;70685;52.496;13.420;2023-09-07T11:49:02;38.10;23.00
81210;DHT22;70685;52.496;13.420;2023-09-07T11:51:30;37.90;22.00
81210;DHT22;70685;52.496;13.420;2023-09-07T11:53:56;37.90;22.40
81210;DHT22;70685;52.496;13.420;2023-09-07T11:56:21;37.90;22.20
81210;DHT22;70685;52.496;13.420;2023-09-07T11:58:52;37.80;22.00
81210;DHT22;70685;52.496;13.420;2023-09-07T12:01:18;37.50;22.80
81210;DHT22;70685;52.496;13.420;2023-09-07T12:03:43;37.00;22.70
81210;DHT22;70685;52.496;13.420;2023-09-07T12:06:12;36.60;23.20
81210;DHT22;70685;52.496;13.420;2023-09-07T12:08:42;36.80;23.20
81210;DHT22;70685;52.496;13.420;2023-09-07T12:11:22;37.00;22.80
81210;DHT22;70685;52.496;13.420;2023-09-07T12:13:48;37.20;22.60
81210;DHT22;70685;52.496;13.420;2023-09-07T12:16:16;36.60;23.70
81210;DHT22;70685;52.496;13.420;2023-09-07T12:18:42;36.90;23.20
81210;DHT22;70685;52.496;13.420;2023-09-07T12:21:08;37.30;24.10
81210;DHT22;70685;52.496;13.420;2023-09-07T12:23:36;37.40;22.80
81210;DHT22;70685;52.496;13.420;2023-09-07T12:26:01;37.50;23.10
81210;DHT22;70685;52.496;13.420;2023-09-07T12:28:32;37.50;23.40
81210;DHT22;70685;52.496;13.420;2023-09-07T12:30:58;37.60;24.00
81210;DHT22;70685;52.496;13.420;2023-09-07T12:33:24;37.40;23.80
81210;DHT22;70685;52.496;13.420;2023-09-07T12:35:52;37.60;23.40
81210;DHT22;70685;52.496;13.420;2023-09-07T12:38:18;37.90;22.60
81210;DHT22;70685;52.496;13.420;2023-09-07T12:40:47;38.00;22.90
81210;DHT22;70685;52.496;13.420;2023-09-07T12:43:13;37.90;22.50
81210;DHT22;70685;52.496;13.420;2023-09-07T12:45:41;37.40;23.50
81210;DHT22;70685;52.496;13.420;2023-09-07T12:48:07;37.10;22.90
81210;DHT22;70685;52.496;13.420;2023-09-07T12:50:32;37.40;23.40
81210;DHT22;70685;52.496;13.420;2023-09-07T12:52:58;36.90;23.40
81210;DHT22;70685;52.496;13.420;2023-09-07T12:55:24;36.60;23.00
81210;DHT22;70685;52.496;13.420;2023-09-07T12:57:50;36.30;23.50
81210;DHT22;70685;52.496;13.420;2023-09-07T13:00:18;36.10;23.70
81210;DHT22;70685;52.496;13.420;2023-09-07T13:02:49;35.70;24.40
81210;DHT22;70685;52.496;13.420;2023-09-07T13:05:15;35.60;24.90
81210;DHT22;70685;52.496;13.420;2023-09-07T13:07:40;35.20;25.40
81210;DHT22;70685;52.496;13.420;2023-09-07T13:10:09;34.70;24.90
81210;DHT22;70685;52.496;13.420;2023-09-07T13:12:36;34.00;25.50
81210;DHT22;70685;52.496;13.420;2023-09-07T13:15:02;33.70;26.00
81210;DHT22;70685;52.496;13.420;2023-09-07T13:17:28;33.50;26.90
81210;DHT22;70685;52.496;13.420;2023-09-07T13:19:54;33.40;26.20
81210;DHT22;70685;52.496;13.420;2023-09-07T13:22:19;33.10;26.30
81210;DHT22;70685;52.496;13.420;2023-09-07T13:24:47;32.80;25.90
81210;DHT22;70685;52.496;13.420;2023-09-07T13:27:15;32.60;26.90
81210;DHT22;70685;52.496;13.420;2023-09-07T13:29:41;32.60;27.30
81210;DHT22;70685;52.496;13.420;2023-09-07T13:32:09;32.70;26.60
81210;DHT22;70685;52.496;13.420;2023-09-07T13:34:37;32.70;27.00
81210;DHT22;70685;52.496;13.420;2023-09-07T13:37:05;32.60;27.00
81210;DHT22;70685;52.496;13.420;2023-09-07T13:39:33;32.60;27.40
81210;DHT22;70685;52.496;13.420;2023-09-07T13:41:58;32.50;27.70
81210;DHT22;70685;52.496;13.420;2023-09-07T13:44:24;32.50;27.40
81210;DHT22;70685;52.496;13.420;2023-09-07T13:46:52;32.50;26.80
81210;DHT22;70685;52.496;13.420;2023-09-07T13:49:20;32.40;26.80
81210;DHT22;70685;52.496;13.420;2023-09-07T13:51:46;32.50;27.50
81210;DHT22;70685;52.496;13.420;2023-09-07T13:54:11;32.70;27.20
81210;DHT22;70685;52.496;13.420;2023-09-07T13:56:41;32.70;27.00
81210;DHT22;70685;52.496;13.420;2023-09-07T13:59:12;32.40;27.30
81210;DHT22;70685;52.496;13.420;2023-09-07T14:01:38;32.20;27.30
81210;DHT22;70685;52.496;13.420;2023-09-07T14:04:04;32.10;27.50
81210;DHT22;70685;52.496;13.420;2023-09-07T14:06:32;32.20;27.80
81210;DHT22;70685;52.496;13.420;2023-09-07T14:09:00;32.20;27.50
81210;DHT22;70685;52.496;13.420;2023-09-07T14:11:28;32.30;27.50
81210;DHT22;70685;52.496;13.420;2023-09-07T14:13:56;32.30;27.70
81210;DHT22;70685;52.496;13.420;2023-09-07T14:16:24;32.40;27.60
81210;DHT22;70685;52.496;13.420;2023-09-07T14:18:52;32.10;27.60
81210;DHT22;70685;52.496;13.420;2023-09-07T14:21:21;32.00;27.30
81210;DHT22;70685;52.496;13.420;2023-09-07T14:23:49;32.00;27.40
81210;DHT22;70685;52.496;13.420;2023-09-07T14:26:14;32.10;27.40
81210;DHT22;70685;52.496;13.420;2023-09-07T14:28:42;32.20;27.30
81210;DHT22;70685;52.496;13.420;2023-09-07T14:31:10;32.20;27.70
81210;DHT22;70685;52.496;13.420;2023-09-07T14:33:37;32.10;28.00
81210;DHT22;70685;52.496;13.420;2023-09-07T14:36:06;32.20;28.10
81210;DHT22;70685;52.496;13.420;2023-09-07T14:38:35;32.20;28.30
81210;DHT22;70685;52.496;13.420;2023-09-07T14:41:12;32.30;27.80
81210;DHT22;70685;52.496;13.420;2023-09-07T14:43:45;32.20;27.70
81210;DHT22;70685;52.496;13.420;2023-09-07T14:46:13;32.10;28.20
81210;DHT22;70685;52.496;13.420;2023-09-07T14:48:39;32.10;28.30
81210;DHT22;70685;52.496;13.420;2023-09-07T14:51:07;32.10;28.50
81210;DHT22;70685;52.496;13.420;2023-09-07T14:53:32;32.20;28.00
81210;DHT22;70685;52.496;13.420;2023-09-07T14:55:58;32.00;28.00
81210;DHT22;70685;52.496;13.420;2023-09-07T14:58:24;32.00;28.20
81210;DHT22;70685;52.496;13.420;2023-09-07T15:00:49;31.90;28.50
81210;DHT22;70685;52.496;13.420;2023-09-07T15:03:30;31.90;28.30
81210;DHT22;70685;52.496;13.420;2023-09-07T15:05:57;31.80;29.00
81210;DHT22;70685;52.496;13.420;2023-09-07T15:08:24;32.00;28.50
81210;DHT22;70685;52.496;13.420;2023-09-07T15:10:53;32.00;29.10
81210;DHT22;70685;52.496;13.420;2023-09-07T15:13:18;31.90;28.60
81210;DHT22;70685;52.496;13.420;2023-09-07T15:15:48;31.90;28.90
81210;DHT22;70685;52.496;13.420;2023-09-07T15:18:16;32.00;29.00
81210;DHT22;70685;52.496;13.420;2023-09-07T15:20:41;32.00;28.80
81210;DHT22;70685;52.496;13.420;2023-09-07T15:23:09;32.00;28.70